sensor_id;sensor_type;location;lat;lon;timestamp;pressure;altitude;pressure_sealevel;temperature
73673;BMP280;61972;19.480;-99.240;2022-12-20T00:00:55;77665.56;;;24.71
73673;BMP280;61972;19.480;-99.240;2022-12-20T00:03:24;77665.00;;;24.70
73673;BMP280;61972;19.480;-99.240;2022-12-20T00:05:51;77663.91;;;24.69
73673;BMP280;61972;19.480;-99.240;2022-12-20T00:08:17;77669.66;;;24.70
73673;BMP280;61972;19.480;-99.240;2022-12-20T00:10:44;77676.97;;;24.69
73673;BMP280;61972;19.480;-99.240;2022-12-20T00:13:11;77675.84;;;24.68
73673;BMP280;61972;19.480;-99.240;2022-12-20T00:15:37;77677.88;;;24.68
73673;BMP280;61972;19.480;-99.240;2022-12-20T00:18:03;77682.56;;;24.67
73673;BMP280;61972;19.480;-99.240;2022-12-20T00:20:32;77684.25;;;24.69
73673;BMP280;61972;19.480;-99.240;2022-12-20T00:22:58;77685.91;;;24.70
73673;BMP280;61972;19.480;-99.240;2022-12-20T00:25:24;77688.31;;;24.75
73673;BMP280;61972;19.480;-99.240;2022-12-20T00:27:50;77697.56;;;24.88
73673;BMP280;61972;19.480;-99.240;2022-12-20T00:30:16;77702.13;;;25.02
73673;BMP280;61972;19.480;-99.240;2022-12-20T00:32:44;77700.00;;;25.17
73673;BMP280;61972;19.480;-99.240;2022-12-20T00:35:10;77705.31;;;25.34
73673;BMP280;61972;19.480;-99.240;2022-12-20T00:40:04;77708.25;;;25.63
73673;BMP280;61972;19.480;-99.240;2022-12-20T00:42:30;77705.28;;;25.82
73673;BMP280;61972;19.480;-99.240;2022-12-20T00:44:56;77715.25;;;25.99
73673;BMP280;61972;19.480;-99.240;2022-12-20T00:47:23;77715.81;;;26.16
73673;BMP280;61972;19.480;-99.240;2022-12-20T00:49:49;77721.63;;;26.34
73673;BMP280;61972;19.480;-99.240;2022-12-20T00:52:15;77722.91;;;26.54
73673;BMP280;61972;19.480;-99.240;2022-12-20T00:54:41;77727.03;;;26.70
73673;BMP280;61972;19.480;-99.240;2022-12-20T00:57:07;77735.28;;;26.85
73673;BMP280;61972;19.480;-99.240;2022-12-20T00:59:33;77737.03;;;26.97
73673;BMP280;61972;19.480;-99.240;2022-12-20T01:01:59;77739.31;;;27.08
73673;BMP280;61972;19.480;-99.240;2022-12-20T01:04:25;77747.97;;;27.21
73673;BMP280;61972;19.480;-99.240;2022-12-20T01:06:51;77754.91;;;27.32
73673;BMP280;61972;19.480;-99.240;2022-12-20T01:09:17;77764.94;;;27.42
73673;BMP280;61972;19.480;-99.240;2022-12-20T01:11:43;77770.63;;;27.49
73673;BMP280;61972;19.480;-99.240;2022-12-20T01:14:12;77770.25;;;27.51
73673;BMP280;61972;19.480;-99.240;2022-12-20T01:16:42;77765.53;;;27.52
73673;BMP280;61972;19.480;-99.240;2022-12-20T01:19:11;77769.25;;;27.53
73673;BMP280;61972;19.480;-99.240;2022-12-20T01:21:38;77777.13;;;27.53
73673;BMP280;61972;19.480;-99.240;2022-12-20T01:24:12;77774.22;;;27.48
73673;BMP280;61972;19.480;-99.240;2022-12-20T01:26:39;77776.94;;;27.41
73673;BMP280;61972;19.480;-99.240;2022-12-20T01:29:05;77778.16;;;27.35
73673;BMP280;61972;19.480;-99.240;2022-12-20T01:31:32;77787.22;;;27.28
73673;BMP280;61972;19.480;-99.240;2022-12-20T01:33:59;77785.94;;;27.25
73673;BMP280;61972;19.480;-99.240;2022-12-20T01:36:28;77794.06;;;27.20
73673;BMP280;61972;19.480;-99.240;2022-12-20T01:39:00;77789.59;;;27.16
73673;BMP280;61972;19.480;-99.240;2022-12-20T01:41:27;77800.34;;;27.11
73673;BMP280;61972;19.480;-99.240;2022-12-20T01:46:27;77793.91;;;27.01
73673;BMP280;61972;19.480;-99.240;2022-12-20T01:51:28;77800.75;;;26.92
73673;BMP280;61972;19.480;-99.240;2022-12-20T01:54:01;77804.16;;;26.88
73673;BMP280;61972;19.480;-99.240;2022-12-20T01:56:28;77807.59;;;26.84
73673;BMP280;61972;19.480;-99.240;2022-12-20T01:58:55;77807.41;;;26.82
73673;BMP280;61972;19.480;-99.240;2022-12-20T02:01:23;77814.41;;;26.76
73673;BMP280;61972;19.480;-99.240;2022-12-20T02:03:50;77822.09;;;26.73
73673;BMP280;61972;19.480;-99.240;2022-12-20T02:06:19;77827.19;;;26.71
73673;BMP280;61972;19.480;-99.240;2022-12-20T02:08:47;77841.09;;;26.67
73673;BMP280;61972;19.480;-99.240;2022-12-20T02:16:41;77857.81;;;26.58
73673;BMP280;61972;19.480;-99.240;2022-12-20T02:19:22;77860.28;;;26.55
73673;BMP280;61972;19.480;-99.240;2022-12-20T02:22:15;77863.84;;;26.54
73673;BMP280;61972;19.480;-99.240;2022-12-20T02:25:09;77871.00;;;26.51
73673;BMP280;61972;19.480;-99.240;2022-12-20T02:28:18;77882.25;;;26.47
73673;BMP280;61972;19.480;-99.240;2022-12-20T02:30:41;77877.97;;;26.45
73673;BMP280;61972;19.480;-99.240;2022-12-20T02:33:11;77880.59;;;26.45
73673;BMP280;61972;19.480;-99.240;2022-12-20T02:35:39;77875.19;;;26.43
73673;BMP280;61972;19.480;-99.240;2022-12-20T02:38:29;77879.69;;;26.39
73673;BMP280;61972;19.480;-99.240;2022-12-20T02:41:08;77883.84;;;26.38
73673;BMP280;61972;19.480;-99.240;2022-12-20T02:43:38;77883.09;;;26.35
73673;BMP280;61972;19.480;-99.240;2022-12-20T02:46:25;77885.16;;;26.35
73673;BMP280;61972;19.480;-99.240;2022-12-20T02:48:55;77897.56;;;26.32
73673;BMP280;61972;19.480;-99.240;2022-12-20T02:51:25;77894.75;;;26.29
73673;BMP280;61972;19.480;-99.240;2022-12-20T02:53:54;77893.06;;;26.28
73673;BMP280;61972;19.480;-99.240;2022-12-20T03:02:32;77896.63;;;26.26
73673;BMP280;61972;19.480;-99.240;2022-12-20T03:05:21;77903.41;;;26.25
73673;BMP280;61972;19.480;-99.240;2022-12-20T03:07:48;77908.06;;;26.25
73673;BMP280;61972;19.480;-99.240;2022-12-20T03:10:16;77911.25;;;26.25
73673;BMP280;61972;19.480;-99.240;2022-12-20T03:12:42;77921.72;;;26.25
73673;BMP280;61972;19.480;-99.240;2022-12-20T03:15:09;77910.69;;;26.25
73673;BMP280;61972;19.480;-99.240;2022-12-20T03:17:35;77921.16;;;26.25
73673;BMP280;61972;19.480;-99.240;2022-12-20T03:20:01;77919.88;;;26.21
73673;BMP280;61972;19.480;-99.240;2022-12-20T03:22:27;77925.66;;;26.21
73673;BMP280;61972;19.480;-99.240;2022-12-20T03:24:53;77926.59;;;26.20
73673;BMP280;61972;19.480;-99.240;2022-12-20T03:27:19;77926.06;;;26.19
73673;BMP280;61972;19.480;-99.240;2022-12-20T03:29:45;77922.34;;;26.18
73673;BMP280;61972;19.480;-99.240;2022-12-20T03:32:11;77923.25;;;26.17
73673;BMP280;61972;19.480;-99.240;2022-12-20T03:34:38;77924.78;;;26.16
73673;BMP280;61972;19.480;-99.240;2022-12-20T03:37:04;77930.97;;;26.14
73673;BMP280;61972;19.480;-99.240;2022-12-20T03:39:30;77930.97;;;26.14
73673;BMP280;61972;19.480;-99.240;2022-12-20T03:41:56;77934.53;;;26.13
73673;BMP280;61972;19.480;-99.240;2022-12-20T03:44:22;77937.53;;;26.11
73673;BMP280;61972;19.480;-99.240;2022-12-20T03:46:49;77932.84;;;26.11
73673;BMP280;61972;19.480;-99.240;2022-12-20T03:49:15;77936.97;;;26.10
73673;BMP280;61972;19.480;-99.240;2022-12-20T03:51:41;77939.03;;;26.10
73673;BMP280;61972;19.480;-99.240;2022-12-20T03:54:08;77936.41;;;26.10
73673;BMP280;61972;19.480;-99.240;2022-12-20T03:56:34;77945.22;;;26.08
73673;BMP280;61972;19.480;-99.240;2022-12-20T03:59:00;77938.47;;;26.09
73673;BMP280;61972;19.480;-99.240;2022-12-20T04:01:27;77945.22;;;26.08
73673;BMP280;61972;19.480;-99.240;2022-12-20T04:03:54;77941.09;;;26.09
73673;BMP280;61972;19.480;-99.240;2022-12-20T04:06:21;77945.78;;;26.09
73673;BMP280;61972;19.480;-99.240;2022-12-20T04:08:48;77945.22;;;26.08
73673;BMP280;61972;19.480;-99.240;2022-12-20T04:11:15;77949.91;;;26.08
73673;BMP280;61972;19.480;-99.240;2022-12-20T04:13:53;77951.38;;;26.07
73673;BMP280;61972;19.480;-99.240;2022-12-20T04:16:23;77950.81;;;26.06
73673;BMP280;61972;19.480;-99.240;2022-12-20T04:18:50;77951.78;;;26.05
73673;BMP280;61972;19.480;-99.240;2022-12-20T04:21:21;77945.03;;;26.06
73673;BMP280;61972;19.480;-99.240;2022-12-20T04:23:50;77947.13;;;26.05
73673;BMP280;61972;19.480;-99.240;2022-12-20T04:26:17;77946.53;;;26.05
73673;BMP280;61972;19.480;-99.240;2022-12-20T04:28:43;77950.66;;;26.03
73673;BMP280;61972;19.480;-99.240;2022-12-20T04:31:10;77948.59;;;26.04
73673;BMP280;61972;19.480;-99.240;2022-12-20T04:33:37;77947.47;;;26.03
73673;BMP280;61972;19.480;-99.240;2022-12-20T04:36:03;77939.63;;;26.03
73673;BMP280;61972;19.480;-99.240;2022-12-20T04:38:29;77942.25;;;26.03
73673;BMP280;61972;19.480;-99.240;2022-12-20T04:40:55;77950.09;;;26.03
73673;BMP280;61972;19.480;-99.240;2022-12-20T04:43:22;77946.00;;;26.04
73673;BMP280;61972;19.480;-99.240;2022-12-20T04:45:50;77947.13;;;26.05
73673;BMP280;61972;19.480;-99.240;2022-12-20T04:48:18;77947.13;;;26.05
73673;BMP280;61972;19.480;-99.240;2022-12-20T04:50:49;77940.19;;;26.03
73673;BMP280;61972;19.480;-99.240;2022-12-20T04:53:15;77939.06;;;26.02
73673;BMP280;61972;19.480;-99.240;2022-12-20T04:56:00;77944.69;;;26.00
73673;BMP280;61972;19.480;-99.240;2022-12-20T04:58:27;77940.41;;;25.99
73673;BMP280;61972;19.480;-99.240;2022-12-20T05:00:53;77949.75;;;25.98
73673;BMP280;61972;19.480;-99.240;2022-12-20T05:03:22;77948.63;;;25.97
73673;BMP280;61972;19.480;-99.240;2022-12-20T05:05:48;77951.25;;;25.97
73673;BMP280;61972;19.480;-99.240;2022-12-20T05:08:14;77946.00;;;25.97
73673;BMP280;61972;19.480;-99.240;2022-12-20T05:10:41;77948.63;;;25.97
73673;BMP280;61972;19.480;-99.240;2022-12-20T05:13:07;77949.75;;;25.98
73673;BMP280;61972;19.480;-99.240;2022-12-20T05:15:34;77945.66;;;25.99
73673;BMP280;61972;19.480;-99.240;2022-12-20T05:18:00;77941.50;;;26.00
73673;BMP280;61972;19.480;-99.240;2022-12-20T05:20:27;77943.56;;;25.99
73673;BMP280;61972;19.480;-99.240;2022-12-20T05:22:53;77946.19;;;25.99
73673;BMP280;61972;19.480;-99.240;2022-12-20T05:25:41;77945.66;;;25.99
73673;BMP280;61972;19.480;-99.240;2022-12-20T05:28:34;77941.50;;;26.00
73673;BMP280;61972;19.480;-99.240;2022-12-20T05:31:01;77943.03;;;25.99
73673;BMP280;61972;19.480;-99.240;2022-12-20T05:33:27;77941.91;;;25.98
73673;BMP280;61972;19.480;-99.240;2022-12-20T05:35:54;77937.25;;;25.98
73673;BMP280;61972;19.480;-99.240;2022-12-20T05:38:22;77935.16;;;25.99
73673;BMP280;61972;19.480;-99.240;2022-12-20T05:40:48;77939.84;;;25.98
73673;BMP280;61972;19.480;-99.240;2022-12-20T05:43:15;77939.84;;;25.98
73673;BMP280;61972;19.480;-99.240;2022-12-20T05:45:50;77935.16;;;25.99
73673;BMP280;61972;19.480;-99.240;2022-12-20T05:48:18;77933.50;;;25.97
73673;BMP280;61972;19.480;-99.240;2022-12-20T05:50:45;77922.84;;;25.95
73673;BMP280;61972;19.480;-99.240;2022-12-20T05:53:13;77933.31;;;25.95
73673;BMP280;61972;19.480;-99.240;2022-12-20T05:55:44;77930.16;;;25.94
73673;BMP280;61972;19.480;-99.240;2022-12-20T05:58:12;77934.81;;;25.94
73673;BMP280;61972;19.480;-99.240;2022-12-20T06:00:40;77926.94;;;25.94
73673;BMP280;61972;19.480;-99.240;2022-12-20T06:03:07;77928.44;;;25.93
73673;BMP280;61972;19.480;-99.240;2022-12-20T06:05:35;77916.91;;;25.92
73673;BMP280;61972;19.480;-99.240;2022-12-20T06:08:02;77918.56;;;25.93
73673;BMP280;61972;19.480;-99.240;2022-12-20T06:10:28;77913.31;;;25.93
73673;BMP280;61972;19.480;-99.240;2022-12-20T06:12:54;77910.69;;;25.93
73673;BMP280;61972;19.480;-99.240;2022-12-20T06:15:20;77915.00;;;25.95
73673;BMP280;61972;19.480;-99.240;2022-12-20T06:17:46;77911.44;;;25.96
73673;BMP280;61972;19.480;-99.240;2022-12-20T06:20:12;77908.22;;;25.96
73673;BMP280;61972;19.480;-99.240;2022-12-20T06:22:38;77905.63;;;25.96
73673;BMP280;61972;19.480;-99.240;2022-12-20T06:25:05;77906.75;;;25.97
73673;BMP280;61972;19.480;-99.240;2022-12-20T06:27:35;77901.50;;;25.97
73673;BMP280;61972;19.480;-99.240;2022-12-20T06:30:02;77899.47;;;25.97
73673;BMP280;61972;19.480;-99.240;2022-12-20T06:32:29;77896.84;;;25.97
73673;BMP280;61972;19.480;-99.240;2022-12-20T06:34:55;77896.84;;;25.97
73673;BMP280;61972;19.480;-99.240;2022-12-20T06:37:21;77896.28;;;25.97
73673;BMP280;61972;19.480;-99.240;2022-12-20T06:39:47;77895.72;;;25.96
73673;BMP280;61972;19.480;-99.240;2022-12-20T06:42:13;77898.34;;;25.96
73673;BMP280;61972;19.480;-99.240;2022-12-20T06:44:39;77899.28;;;25.95
73673;BMP280;61972;19.480;-99.240;2022-12-20T06:47:05;77898.72;;;25.94
73673;BMP280;61972;19.480;-99.240;2022-12-20T06:49:31;77906.75;;;25.97
73673;BMP280;61972;19.480;-99.240;2022-12-20T06:51:57;77900.97;;;25.96
73673;BMP280;61972;19.480;-99.240;2022-12-20T06:54:23;77910.84;;;25.96
73673;BMP280;61972;19.480;-99.240;2022-12-20T06:56:49;77912.38;;;25.95
73673;BMP280;61972;19.480;-99.240;2022-12-20T06:59:16;77910.84;;;25.96
73673;BMP280;61972;19.480;-99.240;2022-12-20T07:01:42;77917.22;;;25.97
73673;BMP280;61972;19.480;-99.240;2022-12-20T07:04:09;77911.44;;;25.96
73673;BMP280;61972;19.480;-99.240;2022-12-20T07:06:35;77911.44;;;25.96
73673;BMP280;61972;19.480;-99.240;2022-12-20T07:09:02;77904.13;;;25.97
73673;BMP280;61972;19.480;-99.240;2022-12-20T07:11:28;77906.75;;;25.97
73673;BMP280;61972;19.480;-99.240;2022-12-20T07:13:55;77905.63;;;25.96
73673;BMP280;61972;19.480;-99.240;2022-12-20T07:16:22;77903.00;;;25.96
73673;BMP280;61972;19.480;-99.240;2022-12-20T07:18:52;77907.72;;;25.95
73673;BMP280;61972;19.480;-99.240;2022-12-20T07:21:19;77909.75;;;25.95
73673;BMP280;61972;19.480;-99.240;2022-12-20T07:23:46;77909.75;;;25.95
73673;BMP280;61972;19.480;-99.240;2022-12-20T07:26:12;77908.06;;;25.93
73673;BMP280;61972;19.480;-99.240;2022-12-20T07:28:40;77902.84;;;25.93
73673;BMP280;61972;19.480;-99.240;2022-12-20T07:31:06;77910.13;;;25.93
73673;BMP280;61972;19.480;-99.240;2022-12-20T07:33:32;77906.00;;;25.94
73673;BMP280;61972;19.480;-99.240;2022-12-20T07:36:04;77904.88;;;25.93
73673;BMP280;61972;19.480;-99.240;2022-12-20T07:38:31;77908.06;;;25.93
73673;BMP280;61972;19.480;-99.240;2022-12-20T07:40:57;77904.88;;;25.93
73673;BMP280;61972;19.480;-99.240;2022-12-20T07:43:23;77907.50;;;25.93
73673;BMP280;61972;19.480;-99.240;2022-12-20T07:45:56;77903.81;;;25.92
73673;BMP280;61972;19.480;-99.240;2022-12-20T07:48:23;77900.06;;;25.91
73673;BMP280;61972;19.480;-99.240;2022-12-20T07:50:56;77900.06;;;25.91
73673;BMP280;61972;19.480;-99.240;2022-12-20T07:53:26;77900.63;;;25.91
73673;BMP280;61972;19.480;-99.240;2022-12-20T07:55:53;77898.94;;;25.90
73673;BMP280;61972;19.480;-99.240;2022-12-20T07:58:21;77897.84;;;25.89
73673;BMP280;61972;19.480;-99.240;2022-12-20T08:00:47;77898.38;;;25.89
73673;BMP280;61972;19.480;-99.240;2022-12-20T08:03:22;77899.88;;;25.88
73673;BMP280;61972;19.480;-99.240;2022-12-20T08:05:52;77896.72;;;25.88
73673;BMP280;61972;19.480;-99.240;2022-12-20T08:08:21;77898.22;;;25.87
73673;BMP280;61972;19.480;-99.240;2022-12-20T08:10:48;77895.59;;;25.87
73673;BMP280;61972;19.480;-99.240;2022-12-20T08:13:15;77889.22;;;25.86
73673;BMP280;61972;19.480;-99.240;2022-12-20T08:15:41;77892.41;;;25.86
73673;BMP280;61972;19.480;-99.240;2022-12-20T08:18:07;77895.00;;;25.86
73673;BMP280;61972;19.480;-99.240;2022-12-20T08:20:33;77888.69;;;25.85
73673;BMP280;61972;19.480;-99.240;2022-12-20T08:23:02;77888.13;;;25.84
73673;BMP280;61972;19.480;-99.240;2022-12-20T08:25:28;77884.38;;;25.83
73673;BMP280;61972;19.480;-99.240;2022-12-20T08:27:54;77886.44;;;25.83
73673;BMP280;61972;19.480;-99.240;2022-12-20T08:30:20;77880.66;;;25.82
73673;BMP280;61972;19.480;-99.240;2022-12-20T08:32:46;77880.66;;;25.82
73673;BMP280;61972;19.480;-99.240;2022-12-20T08:35:12;77880.13;;;25.82
73673;BMP280;61972;19.480;-99.240;2022-12-20T08:37:38;77879.53;;;25.81
73673;BMP280;61972;19.480;-99.240;2022-12-20T08:40:05;77881.03;;;25.80
73673;BMP280;61972;19.480;-99.240;2022-12-20T08:42:33;77874.69;;;25.79
73673;BMP280;61972;19.480;-99.240;2022-12-20T08:44:59;77866.81;;;25.79
73673;BMP280;61972;19.480;-99.240;2022-12-20T08:47:25;77869.06;;;25.81
73673;BMP280;61972;19.480;-99.240;2022-12-20T08:49:51;77866.78;;;25.87
73673;BMP280;61972;19.480;-99.240;2022-12-20T08:52:17;77873.09;;;25.95
73673;BMP280;61972;19.480;-99.240;2022-12-20T08:54:43;77868.34;;;26.02
73673;BMP280;61972;19.480;-99.240;2022-12-20T08:57:09;77878.44;;;26.12
73673;BMP280;61972;19.480;-99.240;2022-12-20T08:59:35;77882.25;;;26.23
73673;BMP280;61972;19.480;-99.240;2022-12-20T09:02:01;77875.06;;;26.33
73673;BMP280;61972;19.480;-99.240;2022-12-20T09:04:27;77881.00;;;26.43
73673;BMP280;61972;19.480;-99.240;2022-12-20T09:06:53;77886.50;;;26.55
73673;BMP280;61972;19.480;-99.240;2022-12-20T09:09:19;77882.63;;;26.69
73673;BMP280;61972;19.480;-99.240;2022-12-20T09:11:45;77882.91;;;26.81
73673;BMP280;61972;19.480;-99.240;2022-12-20T09:14:11;77881.66;;;26.94
73673;BMP280;61972;19.480;-99.240;2022-12-20T09:16:37;77879.28;;;27.07
73673;BMP280;61972;19.480;-99.240;2022-12-20T09:19:04;77873.53;;;27.16
73673;BMP280;61972;19.480;-99.240;2022-12-20T09:21:30;77871.97;;;27.24
73673;BMP280;61972;19.480;-99.240;2022-12-20T09:23:57;77868.69;;;27.31
73673;BMP280;61972;19.480;-99.240;2022-12-20T09:26:23;77868.78;;;27.41
73673;BMP280;61972;19.480;-99.240;2022-12-20T09:28:50;77868.31;;;27.50
73673;BMP280;61972;19.480;-99.240;2022-12-20T09:31:19;77867.81;;;27.59
73673;BMP280;61972;19.480;-99.240;2022-12-20T09:33:46;77866.22;;;27.67
73673;BMP280;61972;19.480;-99.240;2022-12-20T09:36:18;77861.97;;;27.76
73673;BMP280;61972;19.480;-99.240;2022-12-20T09:38:45;77872.38;;;27.83
73673;BMP280;61972;19.480;-99.240;2022-12-20T09:41:38;77867.03;;;27.90
73673;BMP280;61972;19.480;-99.240;2022-12-20T09:46:46;77866.44;;;28.06
73673;BMP280;61972;19.480;-99.240;2022-12-20T09:49:16;77866.91;;;28.14
73673;BMP280;61972;19.480;-99.240;2022-12-20T09:51:56;77865.13;;;28.20
73673;BMP280;61972;19.480;-99.240;2022-12-20T09:59:56;77873.91;;;28.35
73673;BMP280;61972;19.480;-99.240;2022-12-20T10:02:24;77876.28;;;28.40
73673;BMP280;61972;19.480;-99.240;2022-12-20T10:04:51;77880.19;;;28.43
73673;BMP280;61972;19.480;-99.240;2022-12-20T10:08:00;77884.59;;;28.48
73673;BMP280;61972;19.480;-99.240;2022-12-20T10:13:46;77876.63;;;28.55
73673;BMP280;61972;19.480;-99.240;2022-12-20T10:24:37;77878.31;;;28.66
73673;BMP280;61972;19.480;-99.240;2022-12-20T10:27:15;77878.16;;;28.63
73673;BMP280;61972;19.480;-99.240;2022-12-20T10:29:43;77872.78;;;28.61
73673;BMP280;61972;19.480;-99.240;2022-12-20T10:32:14;77881.06;;;28.59
73673;BMP280;61972;19.480;-99.240;2022-12-20T10:34:49;77889.91;;;28.57
73673;BMP280;61972;19.480;-99.240;2022-12-20T10:37:16;77885.22;;;28.58
73673;BMP280;61972;19.480;-99.240;2022-12-20T10:39:47;77878.84;;;28.57
73673;BMP280;61972;19.480;-99.240;2022-12-20T10:42:26;77878.84;;;28.57
73673;BMP280;61972;19.480;-99.240;2022-12-20T10:44:55;77879.09;;;28.52
73673;BMP280;61972;19.480;-99.240;2022-12-20T10:47:40;77879.56;;;28.33
73673;BMP280;61972;19.480;-99.240;2022-12-20T10:50:22;77888.63;;;28.17
73673;BMP280;61972;19.480;-99.240;2022-12-20T10:53:21;77886.84;;;27.96
73673;BMP280;61972;19.480;-99.240;2022-12-20T10:55:49;77884.81;;;27.80
73673;BMP280;61972;19.480;-99.240;2022-12-20T10:58:41;77887.13;;;27.58
73673;BMP280;61972;19.480;-99.240;2022-12-20T11:01:14;77893.91;;;27.40
73673;BMP280;61972;19.480;-99.240;2022-12-20T11:04:01;77896.78;;;27.18
73673;BMP280;61972;19.480;-99.240;2022-12-20T11:06:48;77900.72;;;26.98
73673;BMP280;61972;19.480;-99.240;2022-12-20T11:09:33;77896.00;;;26.81
73673;BMP280;61972;19.480;-99.240;2022-12-20T11:12:15;77904.78;;;26.63
73673;BMP280;61972;19.480;-99.240;2022-12-20T11:14:43;77905.47;;;26.49
73673;BMP280;61972;19.480;-99.240;2022-12-20T11:37:08;77895.81;;;25.43
73673;BMP280;61972;19.480;-99.240;2022-12-20T11:42:19;77899.44;;;25.27
73673;BMP280;61972;19.480;-99.240;2022-12-20T11:45:23;77904.50;;;25.18
73673;BMP280;61972;19.480;-99.240;2022-12-20T11:50:50;77910.16;;;25.01
73673;BMP280;61972;19.480;-99.240;2022-12-20T11:55:58;77916.53;;;24.88
73673;BMP280;61972;19.480;-99.240;2022-12-20T11:58:35;77917.09;;;24.81
73673;BMP280;61972;19.480;-99.240;2022-12-20T12:01:09;77917.13;;;24.74
73673;BMP280;61972;19.480;-99.240;2022-12-20T12:03:41;77915.81;;;24.70
73673;BMP280;61972;19.480;-99.240;2022-12-20T12:06:22;77922.53;;;24.62
73673;BMP280;61972;19.480;-99.240;2022-12-20T12:17:38;77931.72;;;24.37
73673;BMP280;61972;19.480;-99.240;2022-12-20T12:23:18;77931.91;;;24.25
73673;BMP280;61972;19.480;-99.240;2022-12-20T12:25:46;77933.56;;;24.19
73673;BMP280;61972;19.480;-99.240;2022-12-20T12:28:13;77933.22;;;24.14
73673;BMP280;61972;19.480;-99.240;2022-12-20T12:30:45;77933.75;;;24.08
73673;BMP280;61972;19.480;-99.240;2022-12-20T12:33:20;77942.34;;;24.04
73673;BMP280;61972;19.480;-99.240;2022-12-20T12:35:54;77935.81;;;24.00
73673;BMP280;61972;19.480;-99.240;2022-12-20T12:46:28;77941.75;;;23.89
73673;BMP280;61972;19.480;-99.240;2022-12-20T12:49:01;77948.28;;;23.85
73673;BMP280;61972;19.480;-99.240;2022-12-20T12:51:33;77947.50;;;23.82
73673;BMP280;61972;19.480;-99.240;2022-12-20T12:56:48;77948.63;;;23.76
73673;BMP280;61972;19.480;-99.240;2022-12-20T12:59:22;77951.59;;;23.74
73673;BMP280;61972;19.480;-99.240;2022-12-20T13:01:52;77965.00;;;23.72
73673;BMP280;61972;19.480;-99.240;2022-12-20T13:09:21;77967.03;;;23.64
73673;BMP280;61972;19.480;-99.240;2022-12-20T13:17:56;77977.28;;;23.54
73673;BMP280;61972;19.480;-99.240;2022-12-20T13:20:32;77981.38;;;23.53
73673;BMP280;61972;19.480;-99.240;2022-12-20T13:25:47;77985.06;;;23.47
73673;BMP280;61972;19.480;-99.240;2022-12-20T13:33:50;77992.88;;;23.40
73673;BMP280;61972;19.480;-99.240;2022-12-20T13:38:50;77997.31;;;23.37
73673;BMP280;61972;19.480;-99.240;2022-12-20T13:41:38;78008.09;;;23.35
73673;BMP280;61972;19.480;-99.240;2022-12-20T13:46:53;78003.59;;;23.31
73673;BMP280;61972;19.480;-99.240;2022-12-20T13:49:35;78007.13;;;23.29
73673;BMP280;61972;19.480;-99.240;2022-12-20T13:52:29;78009.56;;;23.26
73673;BMP280;61972;19.480;-99.240;2022-12-20T13:55:03;78019.41;;;23.26
73673;BMP280;61972;19.480;-99.240;2022-12-20T13:57:40;78020.34;;;23.24
73673;BMP280;61972;19.480;-99.240;2022-12-20T14:00:16;78019.56;;;23.21
73673;BMP280;61972;19.480;-99.240;2022-12-20T14:02:43;78023.13;;;23.20
73673;BMP280;61972;19.480;-99.240;2022-12-20T14:05:21;78024.03;;;23.18
73673;BMP280;61972;19.480;-99.240;2022-12-20T14:08:05;78029.59;;;23.16
73673;BMP280;61972;19.480;-99.240;2022-12-20T14:10:33;78031.66;;;23.16
73673;BMP280;61972;19.480;-99.240;2022-12-20T14:13:00;78036.69;;;23.13
73673;BMP280;61972;19.480;-99.240;2022-12-20T14:15:32;78039.63;;;23.11
73673;BMP280;61972;19.480;-99.240;2022-12-20T14:18:14;78043.16;;;23.09
73673;BMP280;61972;19.480;-99.240;2022-12-20T14:20:41;78051.91;;;23.08
73673;BMP280;61972;19.480;-99.240;2022-12-20T14:23:17;78055.44;;;23.06
73673;BMP280;61972;19.480;-99.240;2022-12-20T14:25:58;78055.78;;;23.04
73673;BMP280;61972;19.480;-99.240;2022-12-20T14:28:36;78059.31;;;23.03
73673;BMP280;61972;19.480;-99.240;2022-12-20T14:31:05;78066.00;;;23.02
73673;BMP280;61972;19.480;-99.240;2022-12-20T14:33:36;78066.38;;;23.00
73673;BMP280;61972;19.480;-99.240;2022-12-20T14:38:44;78066.75;;;22.98
73673;BMP280;61972;19.480;-99.240;2022-12-20T14:43:58;78067.09;;;22.96
73673;BMP280;61972;19.480;-99.240;2022-12-20T14:46:27;78071.16;;;22.95
73673;BMP280;61972;19.480;-99.240;2022-12-20T14:52:16;78084.91;;;22.90
73673;BMP280;61972;19.480;-99.240;2022-12-20T14:57:37;78085.28;;;22.88
73673;BMP280;61972;19.480;-99.240;2022-12-20T15:03:16;78087.13;;;22.85
73673;BMP280;61972;19.480;-99.240;2022-12-20T15:05:46;78089.16;;;22.85
73673;BMP280;61972;19.480;-99.240;2022-12-20T15:13:43;78099.72;;;22.80
73673;BMP280;61972;19.480;-99.240;2022-12-20T15:18:41;78114.22;;;22.79
73673;BMP280;61972;19.480;-99.240;2022-12-20T15:21:15;78107.91;;;22.78
73673;BMP280;61972;19.480;-99.240;2022-12-20T15:23:49;78108.81;;;22.77
73673;BMP280;61972;19.480;-99.240;2022-12-20T15:26:21;78104.53;;;22.75
73673;BMP280;61972;19.480;-99.240;2022-12-20T15:28:47;78107.13;;;22.75
73673;BMP280;61972;19.480;-99.240;2022-12-20T15:31:16;78109.72;;;22.75
73673;BMP280;61972;19.480;-99.240;2022-12-20T15:33:43;78106.56;;;22.74
73673;BMP280;61972;19.480;-99.240;2022-12-20T15:36:30;78113.25;;;22.73
73673;BMP280;61972;19.480;-99.240;2022-12-20T15:38:58;78113.25;;;22.73
73673;BMP280;61972;19.480;-99.240;2022-12-20T15:41:33;78116.19;;;22.71
73673;BMP280;61972;19.480;-99.240;2022-12-20T15:44:03;78113.59;;;22.71
73673;BMP280;61972;19.480;-99.240;2022-12-20T15:46:30;78110.44;;;22.71
73673;BMP280;61972;19.480;-99.240;2022-12-20T15:48:56;78105.22;;;22.71
73673;BMP280;61972;19.480;-99.240;2022-12-20T15:51:26;78114.53;;;22.70
73673;BMP280;61972;19.480;-99.240;2022-12-20T15:53:55;78111.94;;;22.70
73673;BMP280;61972;19.480;-99.240;2022-12-20T15:56:23;78111.38;;;22.69
73673;BMP280;61972;19.480;-99.240;2022-12-20T15:58:50;78110.78;;;22.69
73673;BMP280;61972;19.480;-99.240;2022-12-20T16:01:28;78113.75;;;22.67
73673;BMP280;61972;19.480;-99.240;2022-12-20T16:03:56;78105.94;;;22.67
73673;BMP280;61972;19.480;-99.240;2022-12-20T16:06:22;78116.34;;;22.67
73673;BMP280;61972;19.480;-99.240;2022-12-20T16:08:48;78116.34;;;22.67
73673;BMP280;61972;19.480;-99.240;2022-12-20T16:11:43;78119.31;;;22.65
73673;BMP280;61972;19.480;-99.240;2022-12-20T16:14:18;78115.22;;;22.66
73673;BMP280;61972;19.480;-99.240;2022-12-20T16:16:48;78110.94;;;22.64